createdAt,value
2018-04-13T00:00:46.908Z,999.22
2018-04-13T00:01:46.909Z,999.20
2018-04-13T00:02:46.902Z,999.21
2018-04-13T00:03:46.903Z,999.21
2018-04-13T00:04:46.904Z,999.22
2018-04-13T00:05:46.871Z,999.21
2018-04-13T00:06:46.873Z,999.23
2018-04-13T00:07:46.869Z,999.26
2018-04-13T00:08:46.865Z,999.30
2018-04-13T00:09:46.860Z,999.29
2018-04-13T00:10:46.850Z,999.33
2018-04-13T00:11:46.844Z,999.35
2018-04-13T00:12:46.848Z,999.36
2018-04-13T00:13:46.839Z,999.35
2018-04-13T00:14:46.835Z,999.36
2018-04-13T00:15:46.840Z,999.37
2018-04-13T00:16:46.819Z,999.36
2018-04-13T00:17:46.818Z,999.34
2018-04-13T00:18:46.808Z,999.33
2018-04-13T00:19:46.822Z,999.34
2018-04-13T00:20:46.820Z,999.32
2018-04-13T00:21:46.803Z,999.28
2018-04-13T00:22:46.793Z,999.28
2018-04-13T00:23:46.794Z,999.26
2018-04-13T00:24:46.781Z,999.27
2018-04-13T00:25:46.779Z,999.31
2018-04-13T00:26:46.781Z,999.28
2018-04-13T00:27:46.766Z,999.28
2018-04-13T00:28:46.764Z,999.27
2018-04-13T00:29:46.765Z,999.23
2018-04-13T00:30:46.755Z,999.23
2018-04-13T00:31:46.742Z,999.27
2018-04-13T00:32:46.745Z,999.22
2018-04-13T00:33:46.739Z,999.25
2018-04-13T00:34:46.759Z,999.27
2018-04-13T00:35:46.728Z,999.29
2018-04-13T00:36:46.726Z,999.27
2018-04-13T00:37:46.739Z,999.35
2018-04-13T00:38:46.726Z,999.36
2018-04-13T00:39:46.716Z,999.39
2018-04-13T00:40:46.705Z,999.41
2018-04-13T00:41:46.701Z,999.42
2018-04-13T00:42:46.694Z,999.40
2018-04-13T00:43:46.693Z,999.39
2018-04-13T00:44:46.682Z,999.43
2018-04-13T00:45:46.680Z,999.43
2018-04-13T00:46:46.676Z,999.41
2018-04-13T00:47:46.665Z,999.42
2018-04-13T00:48:46.657Z,999.44
2018-04-13T00:49:46.666Z,999.41
2018-04-13T00:50:46.656Z,999.43
2018-04-13T00:51:46.636Z,999.47
2018-04-13T00:52:46.641Z,999.44
2018-04-13T00:53:46.655Z,999.45
2018-04-13T00:54:46.627Z,999.47
2018-04-13T00:55:46.632Z,999.48
2018-04-13T00:56:46.624Z,999.47
2018-04-13T00:57:46.611Z,999.51
2018-04-13T00:58:46.605Z,999.47
2018-04-13T00:59:46.601Z,999.49
2018-04-13T01:00:46.606Z,999.51
2018-04-13T01:01:46.600Z,999.49
2018-04-13T01:02:46.589Z,999.49
2018-04-13T01:03:46.591Z,999.54
2018-04-13T01:04:46.594Z,999.53
2018-04-13T01:05:46.574Z,999.56
2018-04-13T01:06:46.599Z,999.55
2018-04-13T01:07:46.561Z,999.55
2018-04-13T01:08:46.569Z,999.55
2018-04-13T01:09:46.560Z,999.56
2018-04-13T01:10:46.551Z,999.58
2018-04-13T01:11:46.557Z,999.61
2018-04-13T01:12:46.539Z,999.58
2018-04-13T01:13:46.535Z,999.60
2018-04-13T01:14:46.540Z,999.61
2018-04-13T01:15:46.545Z,999.58
2018-04-13T01:16:46.517Z,999.66
2018-04-13T01:17:46.516Z,999.67
2018-04-13T01:18:46.509Z,999.62
2018-04-13T01:19:46.510Z,999.67
2018-04-13T01:20:46.509Z,999.67
2018-04-13T01:21:46.502Z,999.67
2018-04-13T01:22:46.492Z,999.67
2018-04-13T01:23:46.482Z,999.66
2018-04-13T01:24:46.474Z,999.70
2018-04-13T01:25:46.479Z,999.68
2018-04-13T01:26:46.470Z,999.69
2018-04-13T01:27:46.470Z,999.68
2018-04-13T01:28:46.448Z,999.68
2018-04-13T01:29:46.456Z,999.67
2018-04-13T01:30:46.450Z,999.69
2018-04-13T01:31:46.450Z,999.67
2018-04-13T01:32:46.447Z,999.69
2018-04-13T01:33:46.450Z,999.66
2018-04-13T01:34:46.440Z,999.69
2018-04-13T01:35:46.443Z,999.63
2018-04-13T01:36:46.418Z,999.61
2018-04-13T01:37:46.412Z,999.60
2018-04-13T01:38:46.411Z,999.62
2018-04-13T01:39:46.401Z,999.60
2018-04-13T01:40:46.396Z,999.59
2018-04-13T01:41:46.392Z,999.55
2018-04-13T01:42:46.390Z,999.57
2018-04-13T01:43:46.381Z,999.55
2018-04-13T01:44:46.376Z,999.57
2018-04-13T01:45:46.384Z,999.54
2018-04-13T01:46:46.371Z,999.55
2018-04-13T01:47:46.362Z,999.53
2018-04-13T01:48:46.364Z,999.54
2018-04-13T01:49:46.355Z,999.56
2018-04-13T01:50:46.351Z,999.57
2018-04-13T01:51:46.340Z,999.54
2018-04-13T01:52:46.338Z,999.61
2018-04-13T01:53:46.330Z,999.56
2018-04-13T01:54:46.326Z,999.61
2018-04-13T01:55:46.325Z,999.58
2018-04-13T01:56:46.312Z,999.58
2018-04-13T01:57:46.312Z,999.58
2018-04-13T01:58:46.308Z,999.58
2018-04-13T01:59:46.296Z,999.57
2018-04-13T02:00:46.297Z,999.59
2018-04-13T02:01:46.293Z,999.58
2018-04-13T02:02:46.277Z,999.57
2018-04-13T02:03:46.278Z,999.57
2018-04-13T02:04:46.281Z,999.57
2018-04-13T02:05:46.266Z,999.57
2018-04-13T02:06:46.268Z,999.58
2018-04-13T02:07:46.260Z,999.59
2018-04-13T02:08:46.252Z,999.57
2018-04-13T02:09:46.261Z,999.62
2018-04-13T02:10:46.247Z,999.64
2018-04-13T02:11:46.241Z,999.58
2018-04-13T02:12:46.235Z,999.63
2018-04-13T02:13:46.232Z,999.60
2018-04-13T02:14:46.233Z,999.63
2018-04-13T02:15:46.218Z,999.66
2018-04-13T02:16:46.220Z,999.65
2018-04-13T02:17:46.213Z,999.63
2018-04-13T02:18:46.206Z,999.63
2018-04-13T02:19:46.194Z,999.64
2018-04-13T02:20:46.193Z,999.64
2018-04-13T02:21:46.188Z,999.69
2018-04-13T02:22:46.191Z,999.69
2018-04-13T02:23:46.176Z,999.71
2018-04-13T02:24:46.178Z,999.71
2018-04-13T02:25:46.167Z,999.68
2018-04-13T02:26:46.168Z,999.71
2018-04-13T02:27:46.165Z,999.74
2018-04-13T02:28:46.167Z,999.72
2018-04-13T02:29:46.145Z,999.74
2018-04-13T02:30:46.138Z,999.73
2018-04-13T02:31:46.145Z,999.75
2018-04-13T02:32:46.126Z,999.77
2018-04-13T02:33:46.147Z,999.77
2018-04-13T02:34:46.121Z,999.76
2018-04-13T02:35:46.107Z,999.75
2018-04-13T02:36:46.109Z,999.76
2018-04-13T02:37:46.098Z,999.76
2018-04-13T02:38:46.104Z,999.75
2018-04-13T02:39:46.101Z,999.73
2018-04-13T02:40:46.100Z,999.76
2018-04-13T02:41:46.082Z,999.75
2018-04-13T02:42:46.077Z,999.74
2018-04-13T02:43:46.078Z,999.76
2018-04-13T02:44:46.069Z,999.73
2018-04-13T02:45:46.063Z,999.74
2018-04-13T02:46:46.062Z,999.73
2018-04-13T02:47:46.053Z,999.74
2018-04-13T02:48:46.053Z,999.74
2018-04-13T02:49:46.048Z,999.75
2018-04-13T02:50:46.033Z,999.73
2018-04-13T02:51:46.032Z,999.74
2018-04-13T02:52:46.031Z,999.72
2018-04-13T02:53:46.027Z,999.77
2018-04-13T02:54:46.015Z,999.76
2018-04-13T02:55:46.014Z,999.79
2018-04-13T02:56:46.018Z,999.80
2018-04-13T02:57:46.004Z,999.80
2018-04-13T02:58:45.997Z,999.78
2018-04-13T02:59:45.991Z,999.79
2018-04-13T03:00:45.982Z,999.78
2018-04-13T03:01:45.977Z,999.85
2018-04-13T03:02:45.979Z,999.84
2018-04-13T03:03:45.964Z,999.84
2018-04-13T03:04:45.969Z,999.85
2018-04-13T03:05:45.957Z,999.87
2018-04-13T03:06:45.948Z,999.87
2018-04-13T03:07:45.952Z,999.89
2018-04-13T03:08:45.948Z,999.90
2018-04-13T03:09:45.936Z,999.88
2018-04-13T03:10:45.937Z,999.90
2018-04-13T03:11:45.931Z,999.91
2018-04-13T03:12:45.923Z,999.85
2018-04-13T03:13:45.919Z,999.87
2018-04-13T03:14:45.915Z,999.83
2018-04-13T03:15:45.901Z,999.84
2018-04-13T03:16:45.908Z,999.86
2018-04-13T03:17:45.904Z,999.86
2018-04-13T03:18:45.893Z,999.83
2018-04-13T03:19:45.887Z,999.84
2018-04-13T03:20:45.883Z,999.81
2018-04-13T03:21:45.883Z,999.85
2018-04-13T03:22:45.875Z,999.83
2018-04-13T03:23:45.863Z,999.83
2018-04-13T03:24:45.872Z,999.82
2018-04-13T03:25:45.858Z,999.82
2018-04-13T03:26:45.841Z,999.82
2018-04-13T03:27:45.850Z,999.82
2018-04-13T03:28:45.850Z,999.83
2018-04-13T03:29:45.831Z,999.86
2018-04-13T03:30:45.832Z,999.86
2018-04-13T03:31:45.832Z,999.84
2018-04-13T03:32:45.823Z,999.86
2018-04-13T03:33:45.815Z,999.84
2018-04-13T03:34:45.812Z,999.85
2018-04-13T03:35:45.801Z,999.86
2018-04-13T03:36:45.798Z,999.86
2018-04-13T03:37:45.797Z,999.87
2018-04-13T03:38:45.793Z,999.86
2018-04-13T03:39:45.779Z,999.89
2018-04-13T03:40:45.783Z,999.90
2018-04-13T03:41:45.781Z,999.88
2018-04-13T03:42:45.773Z,999.91
2018-04-13T03:43:45.764Z,999.89
2018-04-13T03:44:45.757Z,999.92
2018-04-13T03:45:45.762Z,999.91
2018-04-13T03:46:45.751Z,999.94
2018-04-13T03:47:45.744Z,999.94
2018-04-13T03:48:45.745Z,999.94
2018-04-13T03:49:45.727Z,999.92
2018-04-13T03:50:45.731Z,999.95
2018-04-13T03:51:45.718Z,999.94
2018-04-13T03:52:45.721Z,999.96
2018-04-13T03:53:45.713Z,999.97
2018-04-13T03:54:45.708Z,999.96
2018-04-13T03:55:45.707Z,999.95
2018-04-13T03:56:45.702Z,1000.00
2018-04-13T03:57:45.697Z,999.97
2018-04-13T03:58:45.683Z,999.99
2018-04-13T03:59:45.710Z,1000.04
2018-04-13T04:00:45.677Z,999.99
2018-04-13T04:01:45.685Z,1000.01
2018-04-13T04:02:45.667Z,1000.04
2018-04-13T04:03:45.668Z,1000.02
2018-04-13T04:04:45.651Z,1000.05
2018-04-13T04:05:45.663Z,1000.08
2018-04-13T04:06:45.646Z,1000.08
2018-04-13T04:07:45.645Z,1000.10
2018-04-13T04:08:45.638Z,1000.11
2018-04-13T04:09:45.625Z,1000.11
2018-04-13T04:10:45.613Z,1000.11
2018-04-13T04:11:45.619Z,1000.13
2018-04-13T04:12:45.621Z,1000.15
2018-04-13T04:13:45.612Z,1000.14
2018-04-13T04:14:45.605Z,1000.15
2018-04-13T04:15:45.597Z,1000.15
2018-04-13T04:16:45.603Z,1000.15
2018-04-13T04:17:45.587Z,1000.13
2018-04-13T04:18:45.581Z,1000.15
2018-04-13T04:19:45.582Z,1000.13
2018-04-13T04:20:45.568Z,1000.10
2018-04-13T04:21:45.563Z,1000.11
2018-04-13T04:22:45.557Z,1000.15
2018-04-13T04:23:45.556Z,1000.15
2018-04-13T04:24:45.551Z,1000.16
2018-04-13T04:25:45.550Z,1000.17
2018-04-13T04:26:45.543Z,1000.21
2018-04-13T04:27:45.541Z,1000.26
2018-04-13T04:28:45.534Z,1000.30
2018-04-13T04:29:45.532Z,1000.29
2018-04-13T04:30:45.517Z,1000.29
2018-04-13T04:31:45.515Z,1000.31
2018-04-13T04:32:45.502Z,1000.36
2018-04-13T04:33:45.505Z,1000.33
2018-04-13T04:34:45.493Z,1000.34
2018-04-13T04:35:45.491Z,1000.35
2018-04-13T04:36:45.487Z,1000.37
2018-04-13T04:37:45.487Z,1000.34
2018-04-13T04:38:45.485Z,1000.37
2018-04-13T04:39:45.482Z,1000.36
2018-04-13T04:40:45.458Z,1000.35
2018-04-13T04:41:45.464Z,1000.44
2018-04-13T04:42:45.459Z,1000.43
2018-04-13T04:43:45.447Z,1000.46
2018-04-13T04:44:45.443Z,1000.49
2018-04-13T04:45:45.450Z,1000.55
2018-04-13T04:46:45.438Z,1000.59
2018-04-13T04:47:45.423Z,1000.62
2018-04-13T04:48:45.427Z,1000.65
2018-04-13T04:49:45.418Z,1000.66
2018-04-13T04:50:45.417Z,1000.70
2018-04-13T04:51:45.408Z,1000.70
2018-04-13T04:52:45.407Z,1000.74
2018-04-13T04:53:45.404Z,1000.75
2018-04-13T04:54:45.387Z,1000.78
2018-04-13T04:55:45.393Z,1000.76
2018-04-13T04:56:45.383Z,1000.78
2018-04-13T04:57:45.379Z,1000.80
2018-04-13T04:58:45.383Z,1000.79
2018-04-13T04:59:45.359Z,1000.79
2018-04-13T05:00:45.367Z,1000.80
2018-04-13T05:01:45.375Z,1000.82
2018-04-13T05:02:45.355Z,1000.81
2018-04-13T05:03:45.347Z,1000.80
2018-04-13T05:04:45.334Z,1000.80
2018-04-13T05:05:45.337Z,1000.79
2018-04-13T05:06:45.335Z,1000.78
2018-04-13T05:07:45.334Z,1000.82
2018-04-13T05:08:45.319Z,1000.80
2018-04-13T05:09:45.315Z,1000.79
2018-04-13T05:10:45.340Z,1000.83
2018-04-13T05:11:45.306Z,1000.83
2018-04-13T05:12:45.311Z,1000.86
2018-04-13T05:13:45.291Z,1000.86
2018-04-13T05:14:45.290Z,1000.89
2018-04-13T05:15:45.289Z,1000.92
2018-04-13T05:16:45.283Z,1000.92
2018-04-13T05:17:45.278Z,1000.94
2018-04-13T05:18:45.271Z,1000.98
2018-04-13T05:19:45.270Z,1001.00
2018-04-13T05:20:45.288Z,1000.99
2018-04-13T05:21:45.254Z,1001.01
2018-04-13T05:22:45.253Z,1001.01
2018-04-13T05:23:45.248Z,1001.05
2018-04-13T05:24:45.240Z,1001.12
2018-04-13T05:25:45.235Z,1001.11
2018-04-13T05:26:45.228Z,1001.11
2018-04-13T05:27:45.231Z,1001.17
2018-04-13T05:28:45.222Z,1001.18
2018-04-13T05:29:45.209Z,1001.17
2018-04-13T05:30:45.215Z,1001.22
2018-04-13T05:31:45.209Z,1001.27
2018-04-13T05:32:45.196Z,1001.27
2018-04-13T05:33:45.196Z,1001.31
2018-04-13T05:34:45.187Z,1001.30
2018-04-13T05:35:45.181Z,1001.33
2018-04-13T05:36:45.176Z,1001.36
2018-04-13T05:37:45.170Z,1001.34
2018-04-13T05:38:45.185Z,1001.34
2018-04-13T05:39:45.164Z,1001.39
2018-04-13T05:40:45.162Z,1001.41
2018-04-13T05:41:45.164Z,1001.39
2018-04-13T05:42:45.145Z,1001.38
2018-04-13T05:43:45.142Z,1001.45
2018-04-13T05:44:45.136Z,1001.40
2018-04-13T05:45:45.136Z,1001.44
2018-04-13T05:46:45.119Z,1001.47
2018-04-13T05:47:45.117Z,1001.43
2018-04-13T05:48:45.118Z,1001.47
2018-04-13T05:49:45.112Z,1001.53
2018-04-13T05:50:45.130Z,1001.56
2018-04-13T05:51:45.095Z,1001.54
2018-04-13T05:52:45.102Z,1001.53
2018-04-13T05:53:45.090Z,1001.60
2018-04-13T05:54:45.095Z,1001.60
2018-04-13T05:55:45.077Z,1001.59
2018-04-13T05:56:45.091Z,1001.63
2018-04-13T05:57:45.071Z,1001.66
2018-04-13T05:58:45.074Z,1001.67
2018-04-13T05:59:45.055Z,1001.69
2018-04-13T06:00:45.051Z,1001.70
2018-04-13T06:01:45.040Z,1001.70
2018-04-13T06:02:45.054Z,1001.73
2018-04-13T06:03:45.035Z,1001.74
2018-04-13T06:04:45.031Z,1001.77
2018-04-13T06:05:45.020Z,1001.79
2018-04-13T06:06:45.020Z,1001.77
2018-04-13T06:07:45.011Z,1001.80
2018-04-13T06:08:45.015Z,1001.75
2018-04-13T06:09:44.999Z,1001.74
2018-04-13T06:10:45.009Z,1001.69
2018-04-13T06:11:45.001Z,1001.66
2018-04-13T06:12:45.006Z,1001.67
2018-04-13T06:13:44.985Z,1001.66
2018-04-13T06:14:44.980Z,1001.61
2018-04-13T06:15:44.977Z,1001.63
2018-04-13T06:16:44.971Z,1001.63
2018-04-13T06:17:44.976Z,1001.60
2018-04-13T06:18:44.961Z,1001.63
2018-04-13T06:19:44.969Z,1001.65
2018-04-13T06:20:44.950Z,1001.59
2018-04-13T06:21:44.937Z,1001.62
2018-04-13T06:22:44.945Z,1001.58
2018-04-13T06:23:44.926Z,1001.57
2018-04-13T06:24:44.926Z,1001.58
2018-04-13T06:25:44.926Z,1001.61
2018-04-13T06:26:44.929Z,1001.55
2018-04-13T06:27:44.911Z,1001.55
2018-04-13T06:28:44.915Z,1001.55
2018-04-13T06:29:44.894Z,1001.52
2018-04-13T06:30:44.898Z,1001.53
2018-04-13T06:31:44.892Z,1001.57
2018-04-13T06:32:44.878Z,1001.57
2018-04-13T06:33:44.886Z,1001.61
2018-04-13T06:34:44.882Z,1001.63
2018-04-13T06:35:44.866Z,1001.63
2018-04-13T06:36:44.859Z,1001.64
2018-04-13T06:37:44.848Z,1001.70
2018-04-13T06:38:44.869Z,1001.72
2018-04-13T06:39:44.870Z,1001.73
2018-04-13T06:40:44.847Z,1001.77
2018-04-13T06:41:44.837Z,1001.78
2018-04-13T06:42:44.834Z,1001.80
2018-04-13T06:43:44.852Z,1001.84
2018-04-13T06:44:44.832Z,1001.85
2018-04-13T06:45:44.823Z,1001.87
2018-04-13T06:46:44.821Z,1001.89
2018-04-13T06:47:44.811Z,1001.93
2018-04-13T06:48:44.820Z,1001.96
2018-04-13T06:49:44.800Z,1001.95
2018-04-13T06:50:44.797Z,1001.95
2018-04-13T06:51:44.786Z,1001.94
2018-04-13T06:52:44.781Z,1001.94
2018-04-13T06:53:44.770Z,1001.97
2018-04-13T06:54:44.775Z,1001.96
2018-04-13T06:55:44.760Z,1001.99
2018-04-13T06:56:44.787Z,1002.00
2018-04-13T06:57:44.756Z,1002.03
2018-04-13T06:58:44.746Z,1002.04
2018-04-13T06:59:44.752Z,1002.06
2018-04-13T07:00:44.741Z,1002.03
2018-04-13T07:01:44.735Z,1002.04
2018-04-13T07:02:44.718Z,1002.04
2018-04-13T07:03:44.724Z,1002.03
2018-04-13T07:04:44.732Z,1002.03
2018-04-13T07:05:44.725Z,1002.04
2018-04-13T07:06:44.708Z,1002.05
2018-04-13T07:07:44.727Z,1002.04
2018-04-13T07:08:44.697Z,1002.08
2018-04-13T07:09:44.696Z,1002.10
2018-04-13T07:10:44.688Z,1002.12
2018-04-13T07:11:44.692Z,1002.16
2018-04-13T07:12:44.692Z,1002.20
2018-04-13T07:13:44.743Z,1002.16
2018-04-13T07:14:44.682Z,1002.22
2018-04-13T07:15:44.663Z,1002.19
2018-04-13T07:16:44.651Z,1002.20
2018-04-13T07:17:44.642Z,1002.13
2018-04-13T07:18:44.643Z,1002.15
2018-04-13T07:19:44.637Z,1002.11
2018-04-13T07:20:44.642Z,1002.09
2018-04-13T07:21:44.645Z,1002.09
2018-04-13T07:22:44.651Z,1002.09
2018-04-13T07:23:44.618Z,1002.10
2018-04-13T07:24:44.613Z,1002.10
2018-04-13T07:25:44.617Z,1002.13
2018-04-13T07:26:44.636Z,1002.11
2018-04-13T07:27:44.608Z,1002.09
2018-04-13T07:28:44.608Z,1002.07
2018-04-13T07:29:44.593Z,1002.07
2018-04-13T07:30:44.582Z,1002.05
2018-04-13T07:31:44.961Z,1002.06
2018-04-13T07:32:44.573Z,1002.07
2018-04-13T07:33:44.571Z,1002.08
2018-04-13T07:34:44.563Z,1002.04
2018-04-13T07:35:44.559Z,1002.04
2018-04-13T07:36:44.552Z,1002.08
2018-04-13T07:37:44.549Z,1002.06
2018-04-13T07:38:44.757Z,1002.08
2018-04-13T07:39:44.828Z,1002.06
2018-04-13T07:40:44.533Z,1002.06
2018-04-13T07:41:44.539Z,1002.07
2018-04-13T07:42:44.532Z,1002.09
2018-04-13T07:43:44.526Z,1002.12
2018-04-13T07:44:44.523Z,1002.10
2018-04-13T07:45:44.522Z,1002.09
2018-04-13T07:46:44.498Z,1002.11
2018-04-13T07:47:44.493Z,1002.10
2018-04-13T07:48:44.498Z,1002.15
2018-04-13T07:49:44.493Z,1002.18
2018-04-13T07:50:44.517Z,1002.14
2018-04-13T07:51:44.468Z,1002.20
2018-04-13T07:52:44.479Z,1002.22
2018-04-13T07:53:44.474Z,1002.21
2018-04-13T07:54:44.462Z,1002.23
2018-04-13T07:55:44.464Z,1002.25
2018-04-13T07:56:44.479Z,1002.27
2018-04-13T07:57:44.464Z,1002.32
2018-04-13T07:58:44.452Z,1002.30
2018-04-13T07:59:44.478Z,1002.34
2018-04-13T08:00:44.427Z,1002.36
2018-04-13T08:01:44.432Z,1002.38
2018-04-13T08:02:44.427Z,1002.42
2018-04-13T08:03:44.421Z,1002.44
2018-04-13T08:04:44.409Z,1002.46
2018-04-13T08:05:44.528Z,1002.47
2018-04-13T08:06:44.402Z,1002.51
2018-04-13T08:07:44.384Z,1002.45
2018-04-13T08:08:44.389Z,1002.48
2018-04-13T08:09:44.389Z,1002.48
2018-04-13T08:10:44.405Z,1002.47
2018-04-13T08:11:44.373Z,1002.50
2018-04-13T08:12:44.377Z,1002.50
2018-04-13T08:13:44.369Z,1002.51
2018-04-13T08:14:44.359Z,1002.51
2018-04-13T08:15:44.354Z,1002.46
2018-04-13T08:16:44.359Z,1002.49
2018-04-13T08:17:44.348Z,1002.49
2018-04-13T08:18:44.337Z,1002.44
2018-04-13T08:19:44.343Z,1002.45
2018-04-13T08:20:44.330Z,1002.44
2018-04-13T08:21:44.328Z,1002.45
2018-04-13T08:22:44.325Z,1002.44
2018-04-13T08:23:44.319Z,1002.42
2018-04-13T08:24:44.308Z,1002.41
2018-04-13T08:25:44.332Z,1002.42
2018-04-13T08:26:44.304Z,1002.42
2018-04-13T08:27:44.294Z,1002.40
2018-04-13T08:28:44.298Z,1002.46
2018-04-13T08:29:44.302Z,1002.43
2018-04-13T08:30:44.279Z,1002.45
2018-04-13T08:31:44.274Z,1002.44
2018-04-13T08:32:44.265Z,1002.45
2018-04-13T08:33:44.265Z,1002.46
2018-04-13T08:34:44.268Z,1002.49
2018-04-13T08:35:44.247Z,1002.45
2018-04-13T08:36:44.259Z,1002.45
2018-04-13T08:37:44.247Z,1002.49
2018-04-13T08:38:44.236Z,1002.48
2018-04-13T08:39:44.233Z,1002.48
2018-04-13T08:40:44.226Z,1002.48
2018-04-13T08:41:44.233Z,1002.50
2018-04-13T08:42:44.223Z,1002.50
2018-04-13T08:43:44.237Z,1002.51
2018-04-13T08:44:44.208Z,1002.50
2018-04-13T08:45:44.212Z,1002.53
2018-04-13T08:46:44.195Z,1002.54
2018-04-13T08:47:44.212Z,1002.55
2018-04-13T08:48:44.287Z,1002.53
2018-04-13T08:49:44.184Z,1002.55
2018-04-13T08:50:44.181Z,1002.56
2018-04-13T08:51:44.175Z,1002.61
2018-04-13T08:52:44.169Z,1002.64
2018-04-13T08:53:44.160Z,1002.63
2018-04-13T08:54:44.213Z,1002.66
2018-04-13T08:55:44.167Z,1002.66
2018-04-13T08:56:44.158Z,1002.71
2018-04-13T08:57:44.160Z,1002.67
2018-04-13T08:58:44.159Z,1002.68
2018-04-13T08:59:44.142Z,1002.70
2018-04-13T09:00:44.130Z,1002.68
2018-04-13T09:01:44.125Z,1002.68
2018-04-13T09:02:44.114Z,1002.70
2018-04-13T09:03:44.132Z,1002.70
2018-04-13T09:04:44.110Z,1002.73
2018-04-13T09:05:44.099Z,1002.74
2018-04-13T09:06:44.103Z,1002.75
2018-04-13T09:07:44.100Z,1002.78
2018-04-13T09:08:44.083Z,1002.81
2018-04-13T09:09:44.090Z,1002.84
2018-04-13T09:10:44.104Z,1002.88
2018-04-13T09:11:44.069Z,1002.85
2018-04-13T09:12:44.064Z,1002.86
2018-04-13T09:13:44.072Z,1002.88
2018-04-13T09:14:44.054Z,1002.90
2018-04-13T09:15:44.046Z,1002.90
2018-04-13T09:16:44.056Z,1002.91
2018-04-13T09:17:44.060Z,1002.93
2018-04-13T09:18:44.036Z,1002.93
2018-04-13T09:19:44.032Z,1002.92
2018-04-13T09:20:44.050Z,1002.97
2018-04-13T09:21:44.030Z,1002.96
2018-04-13T09:22:44.017Z,1002.99
2018-04-13T09:23:44.002Z,1002.99
2018-04-13T09:24:44.011Z,1003.00
2018-04-13T09:25:43.996Z,1003.05
2018-04-13T09:26:43.991Z,1003.03
2018-04-13T09:27:43.986Z,1003.06
2018-04-13T09:28:43.977Z,1003.05
2018-04-13T09:29:43.984Z,1003.08
2018-04-13T09:30:43.969Z,1003.04
2018-04-13T09:31:43.963Z,1003.06
2018-04-13T09:32:43.950Z,1003.04
2018-04-13T09:33:43.946Z,1003.06
2018-04-13T09:34:43.960Z,1003.06
2018-04-13T09:35:43.951Z,1003.05
2018-04-13T09:36:43.944Z,1003.03
2018-04-13T09:37:43.936Z,1003.05
2018-04-13T09:38:43.946Z,1003.06
2018-04-13T09:39:43.929Z,1003.07
2018-04-13T09:40:43.924Z,1003.08
2018-04-13T09:41:43.919Z,1003.07
2018-04-13T09:42:43.910Z,1003.09
2018-04-13T09:43:43.910Z,1003.05
2018-04-13T09:44:43.900Z,1003.07
2018-04-13T09:45:43.894Z,1003.05
2018-04-13T09:46:43.894Z,1003.06
2018-04-13T09:47:43.880Z,1003.04
2018-04-13T09:48:43.879Z,1003.09
2018-04-13T09:49:43.883Z,1003.06
2018-04-13T09:50:43.879Z,1003.06
2018-04-13T09:51:43.864Z,1003.05
2018-04-13T09:52:43.857Z,1003.07
2018-04-13T09:53:43.871Z,1003.06
2018-04-13T09:54:43.863Z,1003.06
2018-04-13T09:55:43.845Z,1003.08
2018-04-13T09:56:43.840Z,1003.06
2018-04-13T09:57:43.836Z,1003.10
2018-04-13T09:58:43.831Z,1003.07
2018-04-13T09:59:43.838Z,1003.13
2018-04-13T10:00:43.833Z,1003.14
2018-04-13T10:01:43.839Z,1003.11
2018-04-13T10:02:43.812Z,1003.12
2018-04-13T10:03:43.816Z,1003.15
2018-04-13T10:04:43.803Z,1003.17
2018-04-13T10:05:43.795Z,1003.18
2018-04-13T10:06:43.786Z,1003.20
2018-04-13T10:07:43.790Z,1003.23
2018-04-13T10:08:43.785Z,1003.23
2018-04-13T10:09:43.776Z,1003.24
2018-04-13T10:10:43.774Z,1003.23
2018-04-13T10:11:43.777Z,1003.23
2018-04-13T10:12:43.754Z,1003.23
2018-04-13T10:13:43.751Z,1003.25
2018-04-13T10:14:43.760Z,1003.27
2018-04-13T10:15:43.776Z,1003.24
2018-04-13T10:16:43.741Z,1003.30
2018-04-13T10:17:43.750Z,1003.29
2018-04-13T10:18:43.732Z,1003.28
2018-04-13T10:19:43.725Z,1003.32
2018-04-13T10:20:43.721Z,1003.32
2018-04-13T10:21:43.758Z,1003.32
2018-04-13T10:22:43.716Z,1003.36
2018-04-13T10:23:43.712Z,1003.38
2018-04-13T10:24:43.710Z,1003.35
2018-04-13T10:25:43.701Z,1003.41
2018-04-13T10:26:43.698Z,1003.42
2018-04-13T10:27:43.686Z,1003.48
2018-04-13T10:28:43.681Z,1003.48
2018-04-13T10:29:43.678Z,1003.51
2018-04-13T10:30:43.676Z,1003.51
2018-04-13T10:31:43.701Z,1003.52
2018-04-13T10:32:43.668Z,1003.49
2018-04-13T10:33:43.660Z,1003.53
2018-04-13T10:34:43.657Z,1003.52
2018-04-13T10:35:43.641Z,1003.54
2018-04-13T10:36:43.640Z,1003.55
2018-04-13T10:37:43.647Z,1003.55
2018-04-13T10:38:43.631Z,1003.55
2018-04-13T10:39:43.641Z,1003.56
2018-04-13T10:40:43.612Z,1003.59
2018-04-13T10:41:43.627Z,1003.59
2018-04-13T10:42:43.611Z,1003.60
2018-04-13T10:43:43.638Z,1003.63
2018-04-13T10:44:43.605Z,1003.59
2018-04-13T10:45:43.596Z,1003.66
2018-04-13T10:46:43.605Z,1003.66
2018-04-13T10:47:43.577Z,1003.66
2018-04-13T10:48:43.581Z,1003.68
2018-04-13T10:49:43.581Z,1003.66
2018-04-13T10:50:43.570Z,1003.69
2018-04-13T10:51:43.563Z,1003.74
2018-04-13T10:52:43.560Z,1003.74
2018-04-13T10:53:43.546Z,1003.76
2018-04-13T10:54:43.546Z,1003.75
2018-04-13T10:55:43.550Z,1003.74
2018-04-13T10:56:43.542Z,1003.76
2018-04-13T10:57:43.531Z,1003.75
2018-04-13T10:58:43.525Z,1003.75
2018-04-13T10:59:43.538Z,1003.75
2018-04-13T11:00:43.515Z,1003.74
2018-04-13T11:01:43.522Z,1003.75
2018-04-13T11:02:43.509Z,1003.80
2018-04-13T11:03:43.571Z,1003.76
2018-04-13T11:04:43.504Z,1003.77
2018-04-13T11:05:43.493Z,1003.79
2018-04-13T11:06:43.492Z,1003.79
2018-04-13T11:07:43.487Z,1003.79
2018-04-13T11:08:43.484Z,1003.82
2018-04-13T11:09:43.472Z,1003.82
2018-04-13T11:10:43.475Z,1003.83
2018-04-13T11:11:43.493Z,1003.84
2018-04-13T11:12:43.458Z,1003.88
2018-04-13T11:13:43.461Z,1003.92
2018-04-13T11:14:43.460Z,1003.92
2018-04-13T11:15:43.454Z,1003.93
2018-04-13T11:16:43.439Z,1003.96
2018-04-13T11:17:43.437Z,1004.00
2018-04-13T11:18:43.478Z,1004.00
2018-04-13T11:19:43.423Z,1004.05
2018-04-13T11:20:43.422Z,1004.07
2018-04-13T11:21:43.414Z,1004.08
2018-04-13T11:22:43.411Z,1004.09
2018-04-13T11:23:43.392Z,1004.11
2018-04-13T11:24:43.407Z,1004.11
2018-04-13T11:25:43.397Z,1004.12
2018-04-13T11:26:43.405Z,1004.15
2018-04-13T11:27:43.384Z,1004.13
2018-04-13T11:28:43.382Z,1004.14
2018-04-13T11:29:43.372Z,1004.16
2018-04-13T11:30:43.367Z,1004.17
2018-04-13T11:31:43.357Z,1004.14
2018-04-13T11:32:43.356Z,1004.16
2018-04-13T11:33:43.364Z,1004.13
2018-04-13T11:34:43.337Z,1004.13
2018-04-13T11:35:43.357Z,1004.12
2018-04-13T11:36:43.341Z,1004.11
2018-04-13T11:37:43.326Z,1004.11
2018-04-13T11:38:43.330Z,1004.10
2018-04-13T11:39:43.320Z,1004.11
2018-04-13T11:40:43.318Z,1004.10
2018-04-13T11:41:43.310Z,1004.11
2018-04-13T11:42:43.314Z,1004.12
2018-04-13T11:43:43.299Z,1004.13
2018-04-13T11:44:43.312Z,1004.12
2018-04-13T11:45:43.291Z,1004.10
2018-04-13T11:46:43.283Z,1004.07
2018-04-13T11:47:43.281Z,1004.07
2018-04-13T11:48:43.275Z,1004.05
2018-04-13T11:49:43.275Z,1004.05
2018-04-13T11:50:43.266Z,1004.08
2018-04-13T11:51:43.265Z,1004.07
2018-04-13T11:52:43.270Z,1004.06
2018-04-13T11:53:43.251Z,1004.06
2018-04-13T11:54:43.250Z,1004.11
2018-04-13T11:55:43.242Z,1004.11
2018-04-13T11:56:43.250Z,1004.14
2018-04-13T11:57:43.257Z,1004.13
2018-04-13T11:58:43.233Z,1004.15
2018-04-13T11:59:43.223Z,1004.19
2018-04-13T12:00:43.220Z,1004.18
2018-04-13T12:01:43.229Z,1004.23
2018-04-13T12:02:43.215Z,1004.20
2018-04-13T12:03:43.215Z,1004.24
2018-04-13T12:04:43.200Z,1004.29
2018-04-13T12:05:43.209Z,1004.29
2018-04-13T12:06:43.196Z,1004.27
2018-04-13T12:07:43.190Z,1004.34
2018-04-13T12:08:43.175Z,1004.34
2018-04-13T12:09:43.175Z,1004.34
2018-04-13T12:10:43.176Z,1004.37
2018-04-13T12:11:43.167Z,1004.38
2018-04-13T12:12:43.160Z,1004.38
2018-04-13T12:13:43.156Z,1004.40